Weather History for Chipley, FL

Change the Weather History Date:

Thursday, April 4, 2013

  Actual Average (KMAI) Record (KMAI)
Temperature  
Mean Temperature 58 °F 64 °F  
Max Temperature 64 °F 77 °F 87 °F (2011)
Min Temperature 53 °F 51 °F 45 °F (2005)
Degree Days  
Heating Degree Days 6    
Month to date heating degree days  
Since 1 July heating degree days  
Growing Degree Days 8 (Base 50)    
Moisture  
Dew Point 50 °F    
Average Humidity 78    
Maximum Humidity 88    
Minimum Humidity 63    
Precipitation  
Precipitation 0.00 in 0.17 in 0.81 in (2001)
Month to date precipitation 0.69  
Year to date precipitation 16.21  
Sea Level Pressure  
Sea Level Pressure 29.98 in    
Wind  
Wind Speed 5 mph (NNW)    
Max Wind Speed 12 mph    
Max Gust Speed 22 mph    
Visibility 9 miles    
Events      
T = Trace of Precipitation, MM = Missing Value Source: NWS Daily Summary

Daily Weather History Graph

Daily Weather History Graph

Search for Another Location

Airport:

Trip Planner

Search our weather history database for the weather conditions in past years. The results will help you decide how hot, cold, wet, or windy it might be!

Date:

Astronomy

Apr. 04, 2013 Rise Set
Actual Time 6:27 AM CDT 7:03 PM CDT
Civil Twilight 6:03 AM CDT 7:27 PM CDT
Nautical Twilight 5:34 AM CDT 7:56 PM CDT
Astronomical Twilight 5:05 AM CDT 8:25 PM CDT
Moon 2:31 AM CDT (4/4) 1:42 PM CDT (4/4)
Length of Visible Light 13h 24m
Length of Day
12h 36m
Waning Crescent, 33% of the Moon is Illuminated
Apr 4
Waning Crescent
Apr 10
New
Apr 18
First Quarter
Apr 25
Full
May 2
Last Quarter

Hourly Weather History & Observations

Time (CDT) Temp. Dew Point Humidity Pressure Visibility Wind Dir Wind Speed Gust Speed Precip Events Conditions
12:15 AM 57.2 °F 53.6 °F 88% 29.99 in 10.0 mi NNE 4.6 mph - N/A   Overcast
12:35 AM 57.2 °F 53.6 °F 88% 29.99 in 10.0 mi North 5.8 mph - N/A   Overcast
12:55 AM 57.2 °F 53.6 °F 88% 29.99 in 10.0 mi NNE 6.9 mph - N/A   Overcast
1:15 AM 57.2 °F 51.8 °F 82% 29.97 in 10.0 mi NNE 5.8 mph - N/A   Overcast
1:35 AM 57.2 °F 51.8 °F 82% 29.95 in 10.0 mi NNE 5.8 mph - N/A   Overcast
1:55 AM 57.2 °F 51.8 °F 82% 29.94 in 10.0 mi NNE 4.6 mph - N/A   Overcast
2:15 AM 57.2 °F 51.8 °F 82% 29.93 in 10.0 mi NNE 3.5 mph - N/A   Overcast
2:35 AM 57.2 °F 51.8 °F 82% 29.94 in 10.0 mi NNE 3.5 mph - N/A   Overcast
2:55 AM 57.2 °F 51.8 °F 82% 29.94 in 10.0 mi Calm Calm - N/A   Overcast
3:15 AM 57.2 °F 51.8 °F 82% 29.95 in 10.0 mi Calm Calm - N/A   Overcast
3:35 AM 57.2 °F 51.8 °F 82% 29.95 in 10.0 mi Calm Calm - N/A   Overcast
3:55 AM 55.4 °F 51.8 °F 88% 29.94 in 7.0 mi NNW 4.6 mph - N/A   Overcast
4:15 AM 55.4 °F 51.8 °F 88% 29.92 in 6.0 mi NE 3.5 mph - N/A   Overcast
4:35 AM 55.4 °F 51.8 °F 88% 29.90 in 8.0 mi East 3.5 mph - N/A   Overcast
4:55 AM 55.4 °F 51.8 °F 88% 29.94 in 10.0 mi Calm Calm - N/A   Overcast
5:15 AM 55.4 °F 51.8 °F 88% 29.94 in 10.0 mi North 3.5 mph - N/A   Overcast
5:35 AM 55.4 °F 51.8 °F 88% 29.95 in 10.0 mi North 6.9 mph - N/A   Overcast
5:55 AM 55.4 °F 51.8 °F 88% 29.95 in 10.0 mi NNW 5.8 mph - N/A   Overcast
6:15 AM 55.4 °F 51.8 °F 88% 29.95 in 9.0 mi North 4.6 mph - N/A   Overcast
6:35 AM 55.4 °F 51.8 °F 88% 29.96 in 8.0 mi NNW 6.9 mph - N/A   Overcast
6:55 AM 55.4 °F 51.8 °F 88% 29.97 in 7.0 mi NW 6.9 mph - N/A   Overcast
7:15 AM 55.4 °F 51.8 °F 88% 29.99 in 7.0 mi NNW 3.5 mph - N/A   Overcast
7:35 AM 55.4 °F 50.0 °F 82% 29.99 in 5.0 mi NNW 8.1 mph - N/A   Overcast
7:55 AM 53.6 °F 50.0 °F 88% 29.99 in 5.0 mi NNW 5.8 mph - N/A   Overcast
8:15 AM 55.4 °F 51.8 °F 88% 30.00 in 6.0 mi NNW 6.9 mph - N/A   Overcast
8:35 AM 55.4 °F 50.0 °F 82% 30.00 in 7.0 mi NW 4.6 mph - N/A   Overcast
8:55 AM 55.4 °F 50.0 °F 82% 30.00 in 8.0 mi NW 6.9 mph - N/A   Overcast
9:15 AM 55.4 °F 50.0 °F 82% 30.00 in 8.0 mi NW 5.8 mph - N/A   Overcast
9:35 AM 55.4 °F 50.0 °F 82% 30.01 in 9.0 mi WNW 5.8 mph - N/A   Overcast
9:55 AM 55.4 °F 51.8 °F 88% 30.01 in 5.0 mi WNW 4.6 mph - N/A   Overcast
10:15 AM 55.4 °F 51.8 °F 88% 30.01 in 10.0 mi NW 4.6 mph - N/A   Overcast
10:35 AM 57.2 °F 51.8 °F 82% 30.02 in 10.0 mi NW 6.9 mph - N/A   Unknown
10:55 AM 59.0 °F 51.8 °F 77% 30.02 in 10.0 mi WNW 5.8 mph - N/A   Overcast
11:35 AM 60.8 °F 51.8 °F 72% 30.01 in 10.0 mi West 4.6 mph - N/A   Mostly Cloudy
11:55 AM 62.6 °F 51.8 °F 68% 30.01 in 10.0 mi NW 6.9 mph - N/A   Mostly Cloudy
12:15 PM 64.4 °F 51.8 °F 64% 30.00 in 10.0 mi WNW 4.6 mph - N/A   Overcast
12:35 PM 62.6 °F 51.8 °F 68% 30.01 in 10.0 mi NW 5.8 mph - N/A   Overcast
12:55 PM 62.6 °F 51.8 °F 68% 30.00 in 10.0 mi NW 5.8 mph - N/A   Overcast
1:15 PM 62.6 °F 51.8 °F 68% 29.99 in 10.0 mi NNW 8.1 mph - N/A   Overcast
1:35 PM 62.6 °F 51.8 °F 68% 29.99 in 10.0 mi NW 6.9 mph - N/A   Overcast
1:55 PM 62.6 °F 51.8 °F 68% 29.98 in 10.0 mi NNW 9.2 mph - N/A   Overcast
2:15 PM 62.6 °F 51.8 °F 68% 29.97 in 10.0 mi NW 6.9 mph - N/A   Overcast
2:35 PM 62.6 °F 51.8 °F 68% 29.96 in 10.0 mi NNW 6.9 mph - N/A   Overcast
2:55 PM 60.8 °F 51.8 °F 72% 29.96 in 10.0 mi NW 8.1 mph - N/A   Overcast
3:15 PM 62.6 °F 50.0 °F 63% 29.96 in 10.0 mi WNW 5.8 mph - N/A   Overcast
3:35 PM 60.8 °F 50.0 °F 68% 29.95 in 10.0 mi NW 6.9 mph - N/A   Overcast
3:55 PM - - N/A% 29.94 in 10.0 mi NW 9.2 mph - N/A   Overcast
4:15 PM - - N/A% 29.94 in 10.0 mi NNW 5.8 mph - N/A   Overcast
4:35 PM - - N/A% 29.94 in 10.0 mi NW 4.6 mph - N/A   Overcast
4:55 PM - - N/A% 29.94 in 10.0 mi NW 6.9 mph - N/A   Overcast
5:15 PM - - N/A% 29.94 in 10.0 mi North 5.8 mph - N/A   Overcast
5:35 PM - - N/A% 29.95 in 10.0 mi WNW 6.9 mph - N/A   Overcast
5:55 PM 59.0 °F 48.2 °F 67% 29.95 in 10.0 mi NW 4.6 mph - N/A   Overcast
6:15 PM 59.0 °F 48.2 °F 67% 29.95 in 10.0 mi NW 6.9 mph - N/A   Overcast
6:35 PM 59.0 °F 48.2 °F 67% 29.96 in 10.0 mi NW 4.6 mph - N/A   Overcast
6:55 PM 59.0 °F 48.2 °F 67% 29.96 in 10.0 mi NW 4.6 mph - N/A   Overcast
7:15 PM 57.2 °F 48.2 °F 72% 29.97 in 10.0 mi NW 8.1 mph 16.1 mph N/A   Overcast
7:35 PM 55.4 °F 48.2 °F 77% 29.98 in 10.0 mi NNW 9.2 mph 17.3 mph N/A   Overcast
7:55 PM 55.4 °F 50.0 °F 82% 29.98 in 7.0 mi NW 8.1 mph 17.3 mph N/A   Overcast
8:15 PM 55.4 °F 48.2 °F 77% 29.98 in 10.0 mi NNW 8.1 mph - N/A   Overcast
8:35 PM 55.4 °F 48.2 °F 77% 29.98 in 10.0 mi NNW 6.9 mph - N/A   Overcast
8:55 PM 55.4 °F 46.4 °F 72% 29.99 in 10.0 mi NNW 6.9 mph 16.1 mph N/A   Overcast
9:15 PM 55.4 °F 46.4 °F 72% 30.01 in 10.0 mi NNW 11.5 mph 21.9 mph N/A   Overcast
9:35 PM 55.4 °F 46.4 °F 72% 30.01 in 10.0 mi NNW 8.1 mph 19.6 mph N/A   Overcast
9:55 PM 53.6 °F 44.6 °F 72% 30.03 in 10.0 mi NW 10.4 mph - N/A   Overcast
10:15 PM 53.6 °F 44.6 °F 72% 30.03 in 10.0 mi NW 9.2 mph 16.1 mph N/A   Overcast
10:35 PM 53.6 °F 44.6 °F 72% 30.04 in 10.0 mi NW 6.9 mph - N/A   Overcast
10:55 PM 53.6 °F 44.6 °F 72% 30.04 in 10.0 mi NW 11.5 mph 16.1 mph N/A   Overcast
11:15 PM 53.6 °F 44.6 °F 72% 30.04 in 10.0 mi NNW 8.1 mph 17.3 mph N/A   Overcast
11:35 PM 53.6 °F 44.6 °F 72% 30.04 in 10.0 mi North 6.9 mph 17.3 mph N/A   Overcast
11:55 PM 53.6 °F 44.6 °F 72% 30.04 in 10.0 mi North 9.2 mph 19.6 mph N/A   Overcast